Terminal Aerodrome Forecast
Issued by NWS Jackson, KY

Home | Current Version | Previous Version | Text Only | Print | Product List | Glossary On
Versions: 1 2 3 4 5 6 7 8 9 10 11 12 13 14 15 16 17
000
FTUS43 KJKL 290539
TAFLOZ
TAF
KLOZ 290539Z 2906/3006 VRB03KT 3/4SM BR BKN001
     FM290900 00000KT 3SM BR BKN015
     FM291400 24004KT P6SM VCTS BKN015CB
     FM291800 25006KT P6SM BKN035=

USA.gov is the U.S. government's official web portal to all federal, state and local government web resources and services.